sensor_id;sensor_type;location;lat;lon;timestamp;temperature;humidity
78455;SHT31;67751;51.986;5.696;2023-04-06T00:01:43;7.4;51.6
78455;SHT31;67751;51.986;5.696;2023-04-06T00:04:13;7.3;51.9
78455;SHT31;67751;51.986;5.696;2023-04-06T00:06:42;7.3;51.6
78455;SHT31;67751;51.986;5.696;2023-04-06T00:09:14;7.3;51.9
78455;SHT31;67751;51.986;5.696;2023-04-06T00:11:44;7.3;51.8
78455;SHT31;67751;51.986;5.696;2023-04-06T00:14:13;7.3;52.8
78455;SHT31;67751;51.986;5.696;2023-04-06T00:16:44;7.3;52.0
78455;SHT31;67751;51.986;5.696;2023-04-06T00:19:14;7.3;52.2
78455;SHT31;67751;51.986;5.696;2023-04-06T00:21:44;7.3;51.9
78455;SHT31;67751;51.986;5.696;2023-04-06T00:24:13;7.2;52.5
78455;SHT31;67751;51.986;5.696;2023-04-06T00:26:43;7.2;52.1
78455;SHT31;67751;51.986;5.696;2023-04-06T00:29:12;7.2;52.2
78455;SHT31;67751;51.986;5.696;2023-04-06T00:31:42;7.2;52.3
78455;SHT31;67751;51.986;5.696;2023-04-06T00:34:14;7.2;52.5
78455;SHT31;67751;51.986;5.696;2023-04-06T00:36:43;7.2;52.2
78455;SHT31;67751;51.986;5.696;2023-04-06T00:39:13;7.1;52.2
78455;SHT31;67751;51.986;5.696;2023-04-06T00:41:46;7.1;52.7
78455;SHT31;67751;51.986;5.696;2023-04-06T00:44:18;7.1;52.5
78455;SHT31;67751;51.986;5.696;2023-04-06T00:46:48;7.1;52.5
78455;SHT31;67751;51.986;5.696;2023-04-06T00:49:20;7.1;52.2
78455;SHT31;67751;51.986;5.696;2023-04-06T00:51:51;7.1;52.7
78455;SHT31;67751;51.986;5.696;2023-04-06T00:54:22;7.1;52.7
78455;SHT31;67751;51.986;5.696;2023-04-06T00:56:52;7.1;52.5
78455;SHT31;67751;51.986;5.696;2023-04-06T00:59:22;7.1;52.8
78455;SHT31;67751;51.986;5.696;2023-04-06T01:01:52;7.0;52.4
78455;SHT31;67751;51.986;5.696;2023-04-06T01:04:22;7.0;52.6
78455;SHT31;67751;51.986;5.696;2023-04-06T01:06:52;7.0;52.4
78455;SHT31;67751;51.986;5.696;2023-04-06T01:09:22;7.0;53.0
78455;SHT31;67751;51.986;5.696;2023-04-06T01:11:52;7.0;53.1
78455;SHT31;67751;51.986;5.696;2023-04-06T01:14:23;6.9;53.0
78455;SHT31;67751;51.986;5.696;2023-04-06T01:16:53;6.9;53.0
78455;SHT31;67751;51.986;5.696;2023-04-06T01:19:23;6.9;53.6
78455;SHT31;67751;51.986;5.696;2023-04-06T01:21:53;6.9;53.4
78455;SHT31;67751;51.986;5.696;2023-04-06T01:24:22;6.9;53.2
78455;SHT31;67751;51.986;5.696;2023-04-06T01:26:52;6.9;53.2
78455;SHT31;67751;51.986;5.696;2023-04-06T01:29:22;6.8;53.5
78455;SHT31;67751;51.986;5.696;2023-04-06T01:31:52;6.8;53.3
78455;SHT31;67751;51.986;5.696;2023-04-06T01:34:22;6.8;53.8
78455;SHT31;67751;51.986;5.696;2023-04-06T01:36:51;6.8;53.5
78455;SHT31;67751;51.986;5.696;2023-04-06T01:39:21;6.8;53.6
78455;SHT31;67751;51.986;5.696;2023-04-06T01:41:53;6.7;53.6
78455;SHT31;67751;51.986;5.696;2023-04-06T01:44:22;6.7;53.5
78455;SHT31;67751;51.986;5.696;2023-04-06T01:46:52;6.7;53.5
78455;SHT31;67751;51.986;5.696;2023-04-06T01:49:22;6.7;54.1
78455;SHT31;67751;51.986;5.696;2023-04-06T01:51:52;6.7;54.2
78455;SHT31;67751;51.986;5.696;2023-04-06T01:54:22;6.7;54.2
78455;SHT31;67751;51.986;5.696;2023-04-06T01:56:51;6.7;54.5
78455;SHT31;67751;51.986;5.696;2023-04-06T01:59:23;6.7;53.9
78455;SHT31;67751;51.986;5.696;2023-04-06T02:01:53;6.7;54.1
78455;SHT31;67751;51.986;5.696;2023-04-06T02:04:23;6.7;54.1
78455;SHT31;67751;51.986;5.696;2023-04-06T02:06:53;6.7;53.4
78455;SHT31;67751;51.986;5.696;2023-04-06T02:09:23;6.7;54.0
78455;SHT31;67751;51.986;5.696;2023-04-06T02:11:53;6.6;53.8
78455;SHT31;67751;51.986;5.696;2023-04-06T02:14:25;6.6;53.9
78455;SHT31;67751;51.986;5.696;2023-04-06T02:16:55;6.6;54.1
78455;SHT31;67751;51.986;5.696;2023-04-06T02:19:24;6.6;53.9
78455;SHT31;67751;51.986;5.696;2023-04-06T02:21:54;6.6;54.3
78455;SHT31;67751;51.986;5.696;2023-04-06T02:24:24;6.6;54.3
78455;SHT31;67751;51.986;5.696;2023-04-06T02:26:54;6.6;54.8
78455;SHT31;67751;51.986;5.696;2023-04-06T02:29:24;6.6;55.3
78455;SHT31;67751;51.986;5.696;2023-04-06T02:31:53;6.6;54.8
78455;SHT31;67751;51.986;5.696;2023-04-06T02:34:23;6.6;54.6
78455;SHT31;67751;51.986;5.696;2023-04-06T02:36:53;6.6;54.6
78455;SHT31;67751;51.986;5.696;2023-04-06T02:39:24;6.6;55.7
78455;SHT31;67751;51.986;5.696;2023-04-06T02:41:54;6.7;55.3
78455;SHT31;67751;51.986;5.696;2023-04-06T02:44:24;6.7;55.0
78455;SHT31;67751;51.986;5.696;2023-04-06T02:46:54;6.7;55.2
78455;SHT31;67751;51.986;5.696;2023-04-06T02:49:23;6.7;55.0
78455;SHT31;67751;51.986;5.696;2023-04-06T02:51:53;6.7;55.2
78455;SHT31;67751;51.986;5.696;2023-04-06T02:54:23;6.8;55.0
78455;SHT31;67751;51.986;5.696;2023-04-06T02:56:52;6.8;55.6
78455;SHT31;67751;51.986;5.696;2023-04-06T02:59:22;6.8;55.6
78455;SHT31;67751;51.986;5.696;2023-04-06T03:01:54;6.8;55.9
78455;SHT31;67751;51.986;5.696;2023-04-06T03:04:24;6.9;56.1
78455;SHT31;67751;51.986;5.696;2023-04-06T03:06:54;6.9;56.1
78455;SHT31;67751;51.986;5.696;2023-04-06T03:09:24;6.9;55.4
78455;SHT31;67751;51.986;5.696;2023-04-06T03:11:54;6.9;54.6
78455;SHT31;67751;51.986;5.696;2023-04-06T03:14:24;7.0;54.4
78455;SHT31;67751;51.986;5.696;2023-04-06T03:16:54;7.0;54.7
78455;SHT31;67751;51.986;5.696;2023-04-06T03:19:24;7.0;54.7
78455;SHT31;67751;51.986;5.696;2023-04-06T03:21:53;7.0;54.1
78455;SHT31;67751;51.986;5.696;2023-04-06T03:24:23;7.0;53.9
78455;SHT31;67751;51.986;5.696;2023-04-06T03:26:53;7.1;53.7
78455;SHT31;67751;51.986;5.696;2023-04-06T03:29:22;7.1;54.1
78455;SHT31;67751;51.986;5.696;2023-04-06T03:31:52;7.1;54.3
78455;SHT31;67751;51.986;5.696;2023-04-06T03:34:22;7.1;54.9
78455;SHT31;67751;51.986;5.696;2023-04-06T03:36:52;7.1;53.6
78455;SHT31;67751;51.986;5.696;2023-04-06T03:39:21;7.1;53.2
78455;SHT31;67751;51.986;5.696;2023-04-06T03:41:53;7.1;53.3
78455;SHT31;67751;51.986;5.696;2023-04-06T03:44:23;7.2;53.1
78455;SHT31;67751;51.986;5.696;2023-04-06T03:46:53;7.2;54.5
78455;SHT31;67751;51.986;5.696;2023-04-06T03:49:23;7.2;54.4
78455;SHT31;67751;51.986;5.696;2023-04-06T03:51:52;7.2;54.4
78455;SHT31;67751;51.986;5.696;2023-04-06T03:54:22;7.2;54.6
78455;SHT31;67751;51.986;5.696;2023-04-06T03:56:52;7.2;55.4
78455;SHT31;67751;51.986;5.696;2023-04-06T03:59:22;7.2;55.1
78455;SHT31;67751;51.986;5.696;2023-04-06T04:01:52;7.2;55.7
78455;SHT31;67751;51.986;5.696;2023-04-06T04:04:21;7.2;55.2
78455;SHT31;67751;51.986;5.696;2023-04-06T04:06:51;7.2;55.3
78455;SHT31;67751;51.986;5.696;2023-04-06T04:09:21;7.2;55.4
78455;SHT31;67751;51.986;5.696;2023-04-06T04:11:50;7.2;55.0
78455;SHT31;67751;51.986;5.696;2023-04-06T04:14:20;7.2;55.4
78455;SHT31;67751;51.986;5.696;2023-04-06T04:16:50;7.2;55.6
78455;SHT31;67751;51.986;5.696;2023-04-06T04:19:19;7.2;55.1
78455;SHT31;67751;51.986;5.696;2023-04-06T04:21:49;7.2;55.9
78455;SHT31;67751;51.986;5.696;2023-04-06T04:24:19;7.2;55.5
78455;SHT31;67751;51.986;5.696;2023-04-06T04:26:48;7.2;55.4
78455;SHT31;67751;51.986;5.696;2023-04-06T04:29:18;7.2;56.0
78455;SHT31;67751;51.986;5.696;2023-04-06T04:31:50;7.2;56.1
78455;SHT31;67751;51.986;5.696;2023-04-06T04:34:20;7.2;55.7
78455;SHT31;67751;51.986;5.696;2023-04-06T04:36:52;7.2;55.6
78455;SHT31;67751;51.986;5.696;2023-04-06T04:39:22;7.2;55.6
78455;SHT31;67751;51.986;5.696;2023-04-06T04:41:51;7.2;55.8
78455;SHT31;67751;51.986;5.696;2023-04-06T04:44:21;7.2;55.6
78455;SHT31;67751;51.986;5.696;2023-04-06T04:46:51;7.2;56.4
78455;SHT31;67751;51.986;5.696;2023-04-06T04:49:20;7.2;55.5
78455;SHT31;67751;51.986;5.696;2023-04-06T04:51:50;7.2;56.4
78455;SHT31;67751;51.986;5.696;2023-04-06T04:54:22;7.2;55.8
78455;SHT31;67751;51.986;5.696;2023-04-06T04:56:52;7.2;55.4
78455;SHT31;67751;51.986;5.696;2023-04-06T04:59:21;7.2;55.7
78455;SHT31;67751;51.986;5.696;2023-04-06T05:01:51;7.2;55.4
78455;SHT31;67751;51.986;5.696;2023-04-06T05:04:22;7.2;55.0
78455;SHT31;67751;51.986;5.696;2023-04-06T05:07:05;7.2;55.5
78455;SHT31;67751;51.986;5.696;2023-04-06T05:09:36;7.1;54.9
78455;SHT31;67751;51.986;5.696;2023-04-06T05:12:06;7.1;54.8
78455;SHT31;67751;51.986;5.696;2023-04-06T05:14:37;7.1;54.4
78455;SHT31;67751;51.986;5.696;2023-04-06T05:17:08;7.1;54.5
78455;SHT31;67751;51.986;5.696;2023-04-06T05:19:38;7.1;54.4
78455;SHT31;67751;51.986;5.696;2023-04-06T05:22:08;7.1;55.1
78455;SHT31;67751;51.986;5.696;2023-04-06T05:24:38;7.1;54.7
78455;SHT31;67751;51.986;5.696;2023-04-06T05:27:08;7.1;55.2
78455;SHT31;67751;51.986;5.696;2023-04-06T05:29:37;7.1;55.1
78455;SHT31;67751;51.986;5.696;2023-04-06T05:32:07;7.1;54.9
78455;SHT31;67751;51.986;5.696;2023-04-06T05:34:37;7.1;55.1
78455;SHT31;67751;51.986;5.696;2023-04-06T05:37:07;7.1;54.8
78455;SHT31;67751;51.986;5.696;2023-04-06T05:39:36;7.1;54.9
78455;SHT31;67751;51.986;5.696;2023-04-06T05:42:06;7.2;55.1
78455;SHT31;67751;51.986;5.696;2023-04-06T05:44:36;7.2;55.2
78455;SHT31;67751;51.986;5.696;2023-04-06T05:47:06;7.2;55.2
78455;SHT31;67751;51.986;5.696;2023-04-06T05:49:36;7.2;54.8
78455;SHT31;67751;51.986;5.696;2023-04-06T05:52:06;7.2;55.7
78455;SHT31;67751;51.986;5.696;2023-04-06T05:54:36;7.3;56.0
78455;SHT31;67751;51.986;5.696;2023-04-06T05:57:06;7.4;55.5
78455;SHT31;67751;51.986;5.696;2023-04-06T05:59:35;7.4;56.5
78455;SHT31;67751;51.986;5.696;2023-04-06T06:02:06;7.5;55.7
78455;SHT31;67751;51.986;5.696;2023-04-06T06:04:35;7.6;55.3
78455;SHT31;67751;51.986;5.696;2023-04-06T06:07:05;7.7;55.3
78455;SHT31;67751;51.986;5.696;2023-04-06T06:09:34;7.7;54.9
78455;SHT31;67751;51.986;5.696;2023-04-06T06:12:04;7.7;55.2
78455;SHT31;67751;51.986;5.696;2023-04-06T06:14:35;7.8;55.6
78455;SHT31;67751;51.986;5.696;2023-04-06T06:17:04;7.8;55.3
78455;SHT31;67751;51.986;5.696;2023-04-06T06:19:34;7.8;54.4
78455;SHT31;67751;51.986;5.696;2023-04-06T06:22:03;7.8;53.3
78455;SHT31;67751;51.986;5.696;2023-04-06T06:24:33;7.9;54.4
78455;SHT31;67751;51.986;5.696;2023-04-06T06:27:03;7.9;54.0
78455;SHT31;67751;51.986;5.696;2023-04-06T06:29:34;7.9;54.1
78455;SHT31;67751;51.986;5.696;2023-04-06T06:32:04;8.0;54.7
78455;SHT31;67751;51.986;5.696;2023-04-06T06:34:36;8.0;52.5
78455;SHT31;67751;51.986;5.696;2023-04-06T06:37:06;8.0;53.0
78455;SHT31;67751;51.986;5.696;2023-04-06T06:39:35;8.1;53.5
78455;SHT31;67751;51.986;5.696;2023-04-06T06:42:05;8.1;52.7
78455;SHT31;67751;51.986;5.696;2023-04-06T06:44:35;8.1;52.4
78455;SHT31;67751;51.986;5.696;2023-04-06T06:47:06;8.1;53.0
78455;SHT31;67751;51.986;5.696;2023-04-06T06:49:36;8.2;52.5
78455;SHT31;67751;51.986;5.696;2023-04-06T06:52:05;8.2;52.8
78455;SHT31;67751;51.986;5.696;2023-04-06T06:54:35;8.2;52.9
78455;SHT31;67751;51.986;5.696;2023-04-06T06:57:05;8.3;54.3
78455;SHT31;67751;51.986;5.696;2023-04-06T06:59:35;8.3;54.2
78455;SHT31;67751;51.986;5.696;2023-04-06T07:02:05;8.3;52.9
78455;SHT31;67751;51.986;5.696;2023-04-06T07:04:34;8.4;52.7
78455;SHT31;67751;51.986;5.696;2023-04-06T07:07:04;8.4;52.6
78455;SHT31;67751;51.986;5.696;2023-04-06T07:09:35;8.5;54.2
78455;SHT31;67751;51.986;5.696;2023-04-06T07:12:05;8.5;53.5
78455;SHT31;67751;51.986;5.696;2023-04-06T07:14:35;8.6;53.2
78455;SHT31;67751;51.986;5.696;2023-04-06T07:17:05;8.6;54.1
78455;SHT31;67751;51.986;5.696;2023-04-06T07:19:35;8.7;53.8
78455;SHT31;67751;51.986;5.696;2023-04-06T07:22:04;8.7;53.6
78455;SHT31;67751;51.986;5.696;2023-04-06T07:24:34;8.8;53.4
78455;SHT31;67751;51.986;5.696;2023-04-06T07:27:04;8.9;53.3
78455;SHT31;67751;51.986;5.696;2023-04-06T07:29:34;8.9;53.2
78455;SHT31;67751;51.986;5.696;2023-04-06T07:32:04;9.0;53.3
78455;SHT31;67751;51.986;5.696;2023-04-06T07:34:34;9.1;54.5
78455;SHT31;67751;51.986;5.696;2023-04-06T07:37:03;9.1;54.3
78455;SHT31;67751;51.986;5.696;2023-04-06T07:39:33;9.2;52.3
78455;SHT31;67751;51.986;5.696;2023-04-06T07:42:03;9.2;52.4
78455;SHT31;67751;51.986;5.696;2023-04-06T07:44:33;9.2;53.2
78455;SHT31;67751;51.986;5.696;2023-04-06T07:47:02;9.2;53.3
78455;SHT31;67751;51.986;5.696;2023-04-06T07:49:34;9.3;52.1
78455;SHT31;67751;51.986;5.696;2023-04-06T07:52:04;9.3;51.6
78455;SHT31;67751;51.986;5.696;2023-04-06T07:54:34;9.3;53.0
78455;SHT31;67751;51.986;5.696;2023-04-06T07:57:03;9.3;52.1
78455;SHT31;67751;51.986;5.696;2023-04-06T07:59:33;9.3;51.7
78455;SHT31;67751;51.986;5.696;2023-04-06T08:02:03;9.4;52.8
78455;SHT31;67751;51.986;5.696;2023-04-06T08:04:32;9.4;53.4
78455;SHT31;67751;51.986;5.696;2023-04-06T08:07:02;9.4;53.7
78455;SHT31;67751;51.986;5.696;2023-04-06T08:09:32;9.4;52.2
78455;SHT31;67751;51.986;5.696;2023-04-06T08:12:03;9.4;52.3
78455;SHT31;67751;51.986;5.696;2023-04-06T08:14:33;9.4;51.4
78455;SHT31;67751;51.986;5.696;2023-04-06T08:17:03;9.4;52.8
78455;SHT31;67751;51.986;5.696;2023-04-06T08:19:32;9.4;53.3
78455;SHT31;67751;51.986;5.696;2023-04-06T08:22:02;9.5;52.9
78455;SHT31;67751;51.986;5.696;2023-04-06T08:24:32;9.5;52.3
78455;SHT31;67751;51.986;5.696;2023-04-06T08:27:02;9.5;51.0
78455;SHT31;67751;51.986;5.696;2023-04-06T08:29:32;9.5;50.3
78455;SHT31;67751;51.986;5.696;2023-04-06T08:32:02;9.5;49.7
78455;SHT31;67751;51.986;5.696;2023-04-06T08:34:34;9.6;51.8
78455;SHT31;67751;51.986;5.696;2023-04-06T08:37:03;9.6;51.5
78455;SHT31;67751;51.986;5.696;2023-04-06T08:39:33;9.6;51.8
78455;SHT31;67751;51.986;5.696;2023-04-06T08:42:03;9.7;51.0
78455;SHT31;67751;51.986;5.696;2023-04-06T08:44:33;9.7;50.3
78455;SHT31;67751;51.986;5.696;2023-04-06T08:47:06;9.7;50.5
78455;SHT31;67751;51.986;5.696;2023-04-06T08:49:37;9.8;50.8
78455;SHT31;67751;51.986;5.696;2023-04-06T08:52:08;9.8;51.0
78455;SHT31;67751;51.986;5.696;2023-04-06T08:54:39;9.9;51.5
78455;SHT31;67751;51.986;5.696;2023-04-06T08:57:10;9.9;50.9
78455;SHT31;67751;51.986;5.696;2023-04-06T08:59:40;10.0;50.9
78455;SHT31;67751;51.986;5.696;2023-04-06T09:02:18;10.0;49.6
78455;SHT31;67751;51.986;5.696;2023-04-06T09:04:49;10.0;50.0
78455;SHT31;67751;51.986;5.696;2023-04-06T09:07:21;10.1;49.2
78455;SHT31;67751;51.986;5.696;2023-04-06T09:09:51;10.1;50.0
78455;SHT31;67751;51.986;5.696;2023-04-06T09:12:25;10.1;51.1
78455;SHT31;67751;51.986;5.696;2023-04-06T09:14:57;10.1;51.3
78455;SHT31;67751;51.986;5.696;2023-04-06T09:17:28;10.2;50.4
78455;SHT31;67751;51.986;5.696;2023-04-06T09:20:01;10.2;50.5
78455;SHT31;67751;51.986;5.696;2023-04-06T09:22:38;10.2;51.0
78455;SHT31;67751;51.986;5.696;2023-04-06T09:25:09;10.3;52.0
78455;SHT31;67751;51.986;5.696;2023-04-06T09:27:39;10.3;51.9
78455;SHT31;67751;51.986;5.696;2023-04-06T09:30:12;10.3;51.4
78455;SHT31;67751;51.986;5.696;2023-04-06T09:32:51;10.4;50.6
78455;SHT31;67751;51.986;5.696;2023-04-06T09:35:23;10.4;50.3
78455;SHT31;67751;51.986;5.696;2023-04-06T09:37:54;10.4;51.4
78455;SHT31;67751;51.986;5.696;2023-04-06T09:40:24;10.4;50.4
78455;SHT31;67751;51.986;5.696;2023-04-06T09:42:54;10.4;51.6
78455;SHT31;67751;51.986;5.696;2023-04-06T09:45:27;10.5;51.8
78455;SHT31;67751;51.986;5.696;2023-04-06T09:47:59;10.5;50.9
78455;SHT31;67751;51.986;5.696;2023-04-06T09:50:30;10.5;52.0
78455;SHT31;67751;51.986;5.696;2023-04-06T09:53:03;10.5;51.7
78455;SHT31;67751;51.986;5.696;2023-04-06T09:55:40;10.6;52.5
78455;SHT31;67751;51.986;5.696;2023-04-06T09:58:13;10.6;52.3
78455;SHT31;67751;51.986;5.696;2023-04-06T10:00:53;10.6;51.6
78455;SHT31;67751;51.986;5.696;2023-04-06T10:03:35;10.6;51.1
78455;SHT31;67751;51.986;5.696;2023-04-06T10:06:11;10.6;50.6
78455;SHT31;67751;51.986;5.696;2023-04-06T10:08:43;10.7;51.7
78455;SHT31;67751;51.986;5.696;2023-04-06T10:11:15;10.7;51.4
78455;SHT31;67751;51.986;5.696;2023-04-06T10:13:47;10.7;51.7
78455;SHT31;67751;51.986;5.696;2023-04-06T10:16:18;10.7;51.7
78455;SHT31;67751;51.986;5.696;2023-04-06T10:18:54;10.7;52.4
78455;SHT31;67751;51.986;5.696;2023-04-06T10:21:27;10.7;52.3
78455;SHT31;67751;51.986;5.696;2023-04-06T10:24:00;10.7;51.8
78455;SHT31;67751;51.986;5.696;2023-04-06T10:26:30;10.7;52.7
78455;SHT31;67751;51.986;5.696;2023-04-06T10:29:04;10.8;51.3
78455;SHT31;67751;51.986;5.696;2023-04-06T10:31:42;10.8;52.0
78455;SHT31;67751;51.986;5.696;2023-04-06T10:34:12;10.8;52.5
78455;SHT31;67751;51.986;5.696;2023-04-06T10:36:42;10.8;52.6
78455;SHT31;67751;51.986;5.696;2023-04-06T10:39:12;10.9;52.8
78455;SHT31;67751;51.986;5.696;2023-04-06T10:41:44;10.9;53.4
78455;SHT31;67751;51.986;5.696;2023-04-06T10:44:23;10.9;53.7
78455;SHT31;67751;51.986;5.696;2023-04-06T10:46:58;11.0;53.0
78455;SHT31;67751;51.986;5.696;2023-04-06T10:49:29;11.0;53.8
78455;SHT31;67751;51.986;5.696;2023-04-06T10:51:58;11.0;54.7
78455;SHT31;67751;51.986;5.696;2023-04-06T10:54:28;11.1;54.3
78455;SHT31;67751;51.986;5.696;2023-04-06T10:57:00;11.1;54.5
78455;SHT31;67751;51.986;5.696;2023-04-06T10:59:30;11.2;55.0
78455;SHT31;67751;51.986;5.696;2023-04-06T11:02:00;11.2;56.2
78455;SHT31;67751;51.986;5.696;2023-04-06T11:04:30;11.3;55.5
78455;SHT31;67751;51.986;5.696;2023-04-06T11:06:59;11.3;56.6
78455;SHT31;67751;51.986;5.696;2023-04-06T11:09:30;11.3;57.2
78455;SHT31;67751;51.986;5.696;2023-04-06T11:12:02;11.3;59.3
78455;SHT31;67751;51.986;5.696;2023-04-06T11:14:32;11.3;59.2
78455;SHT31;67751;51.986;5.696;2023-04-06T11:17:03;11.3;59.9
78455;SHT31;67751;51.986;5.696;2023-04-06T11:19:34;11.3;60.7
78455;SHT31;67751;51.986;5.696;2023-04-06T11:22:08;11.3;62.2
78455;SHT31;67751;51.986;5.696;2023-04-06T11:24:38;11.3;61.3
78455;SHT31;67751;51.986;5.696;2023-04-06T11:27:07;11.3;61.0
78455;SHT31;67751;51.986;5.696;2023-04-06T11:29:38;11.2;62.5
78455;SHT31;67751;51.986;5.696;2023-04-06T11:32:08;11.2;62.6
78455;SHT31;67751;51.986;5.696;2023-04-06T11:34:39;11.2;64.1
78455;SHT31;67751;51.986;5.696;2023-04-06T11:37:11;11.2;64.5
78455;SHT31;67751;51.986;5.696;2023-04-06T11:39:47;11.1;64.2
78455;SHT31;67751;51.986;5.696;2023-04-06T11:42:25;11.1;64.6
78455;SHT31;67751;51.986;5.696;2023-04-06T11:44:56;11.1;64.7
78455;SHT31;67751;51.986;5.696;2023-04-06T11:47:30;11.1;64.2
78455;SHT31;67751;51.986;5.696;2023-04-06T11:50:07;11.0;63.3
78455;SHT31;67751;51.986;5.696;2023-04-06T11:52:38;11.0;64.0
78455;SHT31;67751;51.986;5.696;2023-04-06T11:55:15;11.0;65.8
78455;SHT31;67751;51.986;5.696;2023-04-06T11:57:45;11.0;65.7
78455;SHT31;67751;51.986;5.696;2023-04-06T12:00:16;11.0;64.6
78455;SHT31;67751;51.986;5.696;2023-04-06T12:02:48;11.0;65.9
78455;SHT31;67751;51.986;5.696;2023-04-06T12:05:18;11.0;65.7
78455;SHT31;67751;51.986;5.696;2023-04-06T12:07:48;10.9;65.9
78455;SHT31;67751;51.986;5.696;2023-04-06T12:10:17;10.9;66.4
78455;SHT31;67751;51.986;5.696;2023-04-06T12:12:47;10.9;67.0
78455;SHT31;67751;51.986;5.696;2023-04-06T12:15:18;10.9;67.0
78455;SHT31;67751;51.986;5.696;2023-04-06T12:17:47;10.8;66.0
78455;SHT31;67751;51.986;5.696;2023-04-06T12:20:20;10.8;66.5
78455;SHT31;67751;51.986;5.696;2023-04-06T12:22:49;10.8;66.6
78455;SHT31;67751;51.986;5.696;2023-04-06T12:25:21;10.7;65.5
78455;SHT31;67751;51.986;5.696;2023-04-06T12:27:51;10.7;66.3
78455;SHT31;67751;51.986;5.696;2023-04-06T12:30:21;10.6;66.6
78455;SHT31;67751;51.986;5.696;2023-04-06T12:32:52;10.6;67.4
78455;SHT31;67751;51.986;5.696;2023-04-06T12:35:21;10.6;67.6
78455;SHT31;67751;51.986;5.696;2023-04-06T12:37:51;10.6;67.3
78455;SHT31;67751;51.986;5.696;2023-04-06T12:40:21;10.5;68.0
78455;SHT31;67751;51.986;5.696;2023-04-06T12:42:51;10.5;68.3
78455;SHT31;67751;51.986;5.696;2023-04-06T12:45:20;10.5;67.1
78455;SHT31;67751;51.986;5.696;2023-04-06T12:47:50;10.5;67.9
78455;SHT31;67751;51.986;5.696;2023-04-06T12:50:22;10.5;69.1
78455;SHT31;67751;51.986;5.696;2023-04-06T12:52:52;10.4;69.5
78455;SHT31;67751;51.986;5.696;2023-04-06T12:55:22;10.4;70.8
78455;SHT31;67751;51.986;5.696;2023-04-06T12:57:54;10.4;69.9
78455;SHT31;67751;51.986;5.696;2023-04-06T13:00:24;10.4;70.2
78455;SHT31;67751;51.986;5.696;2023-04-06T13:02:55;10.4;70.7
78455;SHT31;67751;51.986;5.696;2023-04-06T13:05:25;10.4;70.8
78455;SHT31;67751;51.986;5.696;2023-04-06T13:07:55;10.4;70.7
78455;SHT31;67751;51.986;5.696;2023-04-06T13:10:24;10.3;70.3
78455;SHT31;67751;51.986;5.696;2023-04-06T13:12:54;10.3;70.0
78455;SHT31;67751;51.986;5.696;2023-04-06T13:15:24;10.3;70.6
78455;SHT31;67751;51.986;5.696;2023-04-06T13:17:53;10.3;71.0
78455;SHT31;67751;51.986;5.696;2023-04-06T13:20:23;10.3;72.2
78455;SHT31;67751;51.986;5.696;2023-04-06T13:22:54;10.3;72.0
78455;SHT31;67751;51.986;5.696;2023-04-06T13:25:23;10.4;70.8
78455;SHT31;67751;51.986;5.696;2023-04-06T13:27:55;10.4;71.1
78455;SHT31;67751;51.986;5.696;2023-04-06T13:30:25;10.4;70.7
78455;SHT31;67751;51.986;5.696;2023-04-06T13:32:55;10.3;69.8
78455;SHT31;67751;51.986;5.696;2023-04-06T13:35:25;10.3;70.6
78455;SHT31;67751;51.986;5.696;2023-04-06T13:37:54;10.3;71.1
78455;SHT31;67751;51.986;5.696;2023-04-06T13:40:26;10.3;70.4
78455;SHT31;67751;51.986;5.696;2023-04-06T13:42:56;10.3;71.1
78455;SHT31;67751;51.986;5.696;2023-04-06T13:45:26;10.3;71.4
78455;SHT31;67751;51.986;5.696;2023-04-06T13:47:55;10.3;70.6
78455;SHT31;67751;51.986;5.696;2023-04-06T13:50:27;10.3;71.4
78455;SHT31;67751;51.986;5.696;2023-04-06T13:52:57;10.3;70.4
78455;SHT31;67751;51.986;5.696;2023-04-06T13:55:27;10.3;71.3
78455;SHT31;67751;51.986;5.696;2023-04-06T13:57:57;10.3;70.6
78455;SHT31;67751;51.986;5.696;2023-04-06T14:00:27;10.3;71.2
78455;SHT31;67751;51.986;5.696;2023-04-06T14:02:57;10.3;70.6
78455;SHT31;67751;51.986;5.696;2023-04-06T14:05:30;10.3;71.5
78455;SHT31;67751;51.986;5.696;2023-04-06T14:08:00;10.3;71.5
78455;SHT31;67751;51.986;5.696;2023-04-06T14:10:30;10.3;72.3
78455;SHT31;67751;51.986;5.696;2023-04-06T14:12:59;10.3;71.6
78455;SHT31;67751;51.986;5.696;2023-04-06T14:15:31;10.3;72.0
78455;SHT31;67751;51.986;5.696;2023-04-06T14:18:00;10.3;72.3
78455;SHT31;67751;51.986;5.696;2023-04-06T14:20:32;10.3;72.0
78455;SHT31;67751;51.986;5.696;2023-04-06T14:23:03;10.3;72.3
78455;SHT31;67751;51.986;5.696;2023-04-06T14:25:33;10.3;72.3
78455;SHT31;67751;51.986;5.696;2023-04-06T14:28:02;10.3;72.2
78455;SHT31;67751;51.986;5.696;2023-04-06T14:30:32;10.4;71.7
78455;SHT31;67751;51.986;5.696;2023-04-06T14:33:03;10.4;72.0
78455;SHT31;67751;51.986;5.696;2023-04-06T14:35:37;10.4;72.1
78455;SHT31;67751;51.986;5.696;2023-04-06T14:38:07;10.3;72.8
78455;SHT31;67751;51.986;5.696;2023-04-06T14:40:37;10.4;72.4
78455;SHT31;67751;51.986;5.696;2023-04-06T14:43:07;10.4;72.5
78455;SHT31;67751;51.986;5.696;2023-04-06T14:45:36;10.4;72.6
78455;SHT31;67751;51.986;5.696;2023-04-06T14:48:06;10.4;72.4
78455;SHT31;67751;51.986;5.696;2023-04-06T14:50:39;10.4;72.5
78455;SHT31;67751;51.986;5.696;2023-04-06T14:53:13;10.4;72.1
78455;SHT31;67751;51.986;5.696;2023-04-06T14:55:43;10.4;72.9
78455;SHT31;67751;51.986;5.696;2023-04-06T14:58:13;10.4;72.9
78455;SHT31;67751;51.986;5.696;2023-04-06T15:00:42;10.4;73.2
78455;SHT31;67751;51.986;5.696;2023-04-06T15:03:13;10.4;73.1
78455;SHT31;67751;51.986;5.696;2023-04-06T15:05:44;10.4;73.3
78455;SHT31;67751;51.986;5.696;2023-04-06T15:08:14;10.3;73.3
78455;SHT31;67751;51.986;5.696;2023-04-06T15:10:44;10.3;74.1
78455;SHT31;67751;51.986;5.696;2023-04-06T15:13:14;10.3;73.5
78455;SHT31;67751;51.986;5.696;2023-04-06T15:15:44;10.3;73.8
78455;SHT31;67751;51.986;5.696;2023-04-06T15:18:14;10.3;73.9
78455;SHT31;67751;51.986;5.696;2023-04-06T15:20:45;10.3;74.0
78455;SHT31;67751;51.986;5.696;2023-04-06T15:23:15;10.3;74.0
78455;SHT31;67751;51.986;5.696;2023-04-06T15:25:46;10.3;74.0
78455;SHT31;67751;51.986;5.696;2023-04-06T15:28:17;10.3;73.9
78455;SHT31;67751;51.986;5.696;2023-04-06T15:30:46;10.3;73.7
78455;SHT31;67751;51.986;5.696;2023-04-06T15:33:16;10.2;73.9
78455;SHT31;67751;51.986;5.696;2023-04-06T15:35:46;10.2;73.8
78455;SHT31;67751;51.986;5.696;2023-04-06T15:38:16;10.2;74.1
78455;SHT31;67751;51.986;5.696;2023-04-06T15:40:47;10.2;74.3
78455;SHT31;67751;51.986;5.696;2023-04-06T15:43:17;10.2;74.0
78455;SHT31;67751;51.986;5.696;2023-04-06T15:45:47;10.2;74.5
78455;SHT31;67751;51.986;5.696;2023-04-06T15:48:16;10.2;74.6
78455;SHT31;67751;51.986;5.696;2023-04-06T15:50:46;10.2;74.7
78455;SHT31;67751;51.986;5.696;2023-04-06T15:53:15;10.2;74.7
78455;SHT31;67751;51.986;5.696;2023-04-06T15:55:45;10.2;74.4
78455;SHT31;67751;51.986;5.696;2023-04-06T15:58:14;10.2;74.7
78455;SHT31;67751;51.986;5.696;2023-04-06T16:00:44;10.2;74.5
78455;SHT31;67751;51.986;5.696;2023-04-06T16:03:13;10.2;74.8
78455;SHT31;67751;51.986;5.696;2023-04-06T16:05:43;10.2;75.1
78455;SHT31;67751;51.986;5.696;2023-04-06T16:08:14;10.2;74.9
78455;SHT31;67751;51.986;5.696;2023-04-06T16:10:45;10.2;74.9
78455;SHT31;67751;51.986;5.696;2023-04-06T16:13:16;10.2;74.9
78455;SHT31;67751;51.986;5.696;2023-04-06T16:15:48;10.2;75.0
78455;SHT31;67751;51.986;5.696;2023-04-06T16:18:18;10.2;75.3
78455;SHT31;67751;51.986;5.696;2023-04-06T16:20:48;10.2;75.4
78455;SHT31;67751;51.986;5.696;2023-04-06T16:23:18;10.2;75.3
78455;SHT31;67751;51.986;5.696;2023-04-06T16:25:48;10.2;75.3
78455;SHT31;67751;51.986;5.696;2023-04-06T16:28:20;10.2;75.0
78455;SHT31;67751;51.986;5.696;2023-04-06T16:30:52;10.2;75.1